Time;durP1;ratioP1;P1;durP2;ratioP2;P2;SDS_P1;SDS_P2;PMS_P1;PMS_P2;Temp;Humidity;BMP_temperature;BMP_pressure;BME280_temperature;BME280_humidity;BME280_pressure;Samples;Min_cycle;Max_cycle;Signal;HPM_P1;HPM_P2
2022/02/15 00:00:51;;;;;;;86.70;39.90;;;;;;;-0.35;68.93;98071.38;433496;1268;98343;-42
2022/02/15 00:10:58;;;;;;;126.20;51.50;;;;;;;-0.35;69.17;98067.77;433380;1268;108874;-41
2022/02/15 00:21:05;;;;;;;130.30;55.30;;;;;;;-0.40;69.32;98066.52;433529;1268;97580;-43
2022/02/15 00:31:13;;;;;;;141.80;59.60;;;;;;;-0.54;69.66;98057.36;433576;1268;96674;-42
2022/02/15 00:41:20;;;;;;;91.90;47.30;;;;;;;-0.71;70.30;98049.16;433386;1268;111130;-41
2022/02/15 00:51:27;;;;;;;101.50;45.30;;;;;;;-0.68;70.54;98045.04;433394;1270;109000;-41
2022/02/15 01:01:35;;;;;;;87.70;42.90;;;;;;;-0.62;70.87;98036.06;433557;1268;96688;-43
2022/02/15 01:11:42;;;;;;;129.80;56.60;;;;;;;-0.64;71.19;98028.00;433377;1268;111089;-40
2022/02/15 01:21:49;;;;;;;132.50;55.00;;;;;;;-0.70;72.00;98014.29;433414;1268;109069;-41
2022/02/15 01:31:56;;;;;;;90.90;41.90;;;;;;;-0.66;72.38;98004.34;433358;1268;108697;-43
2022/02/15 01:42:04;;;;;;;78.30;39.50;;;;;;;-0.60;72.59;97991.55;433349;1268;97941;-39
2022/02/15 01:52:11;;;;;;;89.90;41.60;;;;;;;-0.56;72.39;97995.77;433359;1268;108630;-40
2022/02/15 02:02:18;;;;;;;118.60;51.30;;;;;;;-0.62;72.34;98004.59;433393;1268;97532;-42
2022/02/15 02:12:27;;;;;;;116.90;52.10;;;;;;;-0.79;72.13;98002.52;433370;1268;97319;-41
2022/02/15 02:22:34;;;;;;;120.80;54.00;;;;;;;-0.99;72.41;97994.54;433381;1268;111052;-39
2022/02/15 02:32:42;;;;;;;85.80;43.90;;;;;;;-0.98;72.76;98000.30;433411;1268;108836;-41
2022/02/15 02:42:50;;;;;;;79.40;38.40;;;;;;;-0.79;73.03;98002.36;433413;1268;97822;-40
2022/02/15 02:52:57;;;;;;;72.70;36.20;;;;;;;-0.43;73.46;97999.85;433245;1268;111075;-41
2022/02/15 03:03:07;;;;;;;84.10;39.90;;;;;;;-0.13;73.62;98008.68;433338;1268;108721;-42
2022/02/15 03:13:14;;;;;;;96.30;41.70;;;;;;;0.10;74.00;98002.87;433279;1268;97895;-40
2022/02/15 03:23:22;;;;;;;70.40;33.40;;;;;;;0.18;74.17;98003.42;433124;1268;110948;-40
2022/02/15 03:33:29;;;;;;;70.90;33.90;;;;;;;0.22;74.32;98000.90;433161;1268;109249;-43
2022/02/15 03:43:36;;;;;;;94.50;44.50;;;;;;;0.10;74.82;97998.94;433391;1268;97468;-44
2022/02/15 03:53:43;;;;;;;81.60;40.70;;;;;;;-0.08;74.96;97996.92;433217;1268;111198;-42
2022/02/15 04:03:51;;;;;;;66.90;35.70;;;;;;;-0.15;74.95;98003.54;433366;1266;108777;-40
2022/02/15 04:13:58;;;;;;;78.40;38.20;;;;;;;-0.25;74.97;98006.02;433246;1267;97887;-42
2022/02/15 04:24:05;;;;;;;96.20;45.80;;;;;;;-0.33;75.07;98001.97;432362;1270;111135;-40
2022/02/15 04:34:12;;;;;;;83.40;38.70;;;;;;;-0.46;75.27;98004.45;432337;1270;109027;-42
2022/02/15 04:44:20;;;;;;;55.90;32.40;;;;;;;-0.48;75.48;98007.52;433224;1268;97926;-41
2022/02/15 04:54:27;;;;;;;65.50;33.20;;;;;;;-0.52;75.60;98014.56;433209;1268;110375;-44
2022/02/15 05:15:00;;;;;;;115.70;48.60;;;;;;;-0.76;75.74;98028.14;433395;1268;97900;-39
2022/02/15 05:25:09;;;;;;;68.60;36.20;;;;;;;-0.81;75.84;98019.05;433357;1268;111229;-44
2022/02/15 05:35:16;;;;;;;70.40;35.60;;;;;;;-0.80;76.53;98025.30;433288;1268;109174;-42
2022/02/15 05:45:24;;;;;;;100.60;46.10;;;;;;;-0.84;76.80;98031.47;433285;1268;98180;-39
2022/02/15 05:55:31;;;;;;;87.80;41.40;;;;;;;-0.95;76.86;98039.77;433281;1268;111119;-41
2022/02/15 06:05:38;;;;;;;74.60;39.00;;;;;;;-0.92;77.12;98046.77;433217;1268;108864;-42
2022/02/15 06:15:48;;;;;;;68.10;36.20;;;;;;;-0.81;77.21;98051.56;433476;1268;96668;-43
2022/02/15 06:25:55;;;;;;;96.30;45.70;;;;;;;-0.55;77.87;98056.78;433451;1268;111303;-41
2022/02/15 06:36:02;;;;;;;82.50;38.90;;;;;;;-0.19;78.08;98067.88;433277;1267;108887;-41
2022/02/15 06:46:09;;;;;;;72.60;36.60;;;;;;;0.22;77.89;98075.48;433334;1268;108839;-41
2022/02/15 06:56:20;;;;;;;105.90;51.10;;;;;;;0.54;78.33;98088.05;433040;1270;97577;-41
2022/02/15 07:06:27;;;;;;;103.80;52.10;;;;;;;1.06;78.42;98091.45;430749;1270;3130029;-41
2022/02/15 07:26:46;;;;;;;89.60;47.20;;;;;;;2.11;77.66;98094.95;433234;1269;97910;-42
2022/02/15 07:36:54;;;;;;;89.50;43.30;;;;;;;3.25;77.62;98107.26;432458;1270;107843;-41
2022/02/15 07:47:01;;;;;;;74.80;39.20;;;;;;;4.14;77.25;98099.55;433185;1270;97939;-42
2022/02/15 07:57:08;;;;;;;49.40;27.00;;;;;;;5.65;76.99;98105.11;433275;1270;97910;-42
2022/02/15 08:07:14;;;;;;;47.00;27.80;;;;;;;5.56;75.17;98113.30;433407;1269;111056;-42
2022/02/15 08:17:22;;;;;;;37.00;21.30;;;;;;;4.98;74.92;98118.01;433300;1270;108991;-43
2022/02/15 08:27:27;;;;;;;38.40;22.50;;;;;;;4.83;74.94;98131.52;433227;1269;97920;-42
2022/02/15 08:37:34;;;;;;;50.00;26.40;;;;;;;4.99;75.10;98136.03;433277;1269;111075;-40
2022/02/15 08:47:42;;;;;;;54.40;29.40;;;;;;;4.75;74.73;98149.02;433266;1269;109032;-39
2022/02/15 08:57:54;;;;;;;57.40;29.30;;;;;;;4.53;74.79;98152.86;433360;1269;97405;-41
2022/02/15 09:08:01;;;;;;;32.40;20.20;;;;;;;4.56;74.55;98160.00;433288;1269;111229;-40
2022/02/15 09:18:08;;;;;;;45.00;25.30;;;;;;;4.83;74.65;98163.55;433119;1270;108831;-42
2022/02/15 09:28:16;;;;;;;54.90;32.40;;;;;;;5.18;74.61;98163.35;433256;1270;97907;-41
2022/02/15 09:38:23;;;;;;;41.50;24.80;;;;;;;5.85;74.65;98177.63;433409;1270;111528;-43
2022/02/15 09:48:31;;;;;;;37.00;22.70;;;;;;;6.62;74.21;98182.44;433308;1268;107783;-42
2022/02/15 09:58:40;;;;;;;33.90;22.00;;;;;;;6.81;73.47;98179.71;433259;1268;108860;-43
2022/02/15 10:08:47;;;;;;;37.40;20.50;;;;;;;6.86;72.83;98170.50;433339;1268;97907;-41
2022/02/15 10:18:57;;;;;;;39.70;22.50;;;;;;;6.87;72.73;98171.83;432666;1270;108712;-41
2022/02/15 10:29:04;;;;;;;44.90;23.40;;;;;;;6.87;72.63;98186.43;433397;1269;108874;-41
2022/02/15 10:39:42;;;;;;;34.30;21.50;;;;;;;7.17;72.76;98187.29;433445;1269;97932;-41
2022/02/15 10:49:49;;;;;;;31.40;19.00;;;;;;;7.81;72.04;98191.00;433081;1268;110908;-41
2022/02/15 10:59:58;;;;;;;34.10;20.90;;;;;;;8.05;71.40;98196.64;433420;1269;108923;-43
2022/02/15 11:10:11;;;;;;;39.20;19.40;;;;;;;8.18;71.15;98201.16;433398;1269;108827;-41
2022/02/15 11:20:18;;;;;;;28.20;16.80;;;;;;;8.36;70.70;98200.02;433627;1269;97866;-41
2022/02/15 11:30:28;;;;;;;31.40;16.50;;;;;;;8.70;70.38;98198.41;433390;1269;111127;-41
2022/02/15 11:40:37;;;;;;;30.40;16.30;;;;;;;9.28;69.84;98191.44;433533;1270;107976;-42
2022/02/15 12:00:54;;;;;;;26.20;16.10;;;;;;;9.53;69.12;98202.44;433294;1269;97907;-42
2022/02/15 12:11:05;;;;;;;59.50;26.10;;;;;;;9.49;68.86;98210.89;433293;1268;107869;-41
2022/02/15 12:21:13;;;;;;;58.70;23.20;;;;;;;9.38;67.85;98208.13;433414;1270;97513;-42
2022/02/15 12:31:24;;;;;;;92.30;32.00;;;;;;;9.15;67.91;98206.05;433334;1270;111068;-44
2022/02/15 12:41:37;;;;;;;60.10;24.10;;;;;;;9.05;68.17;98198.30;433301;1269;108683;-41
2022/02/15 12:51:47;;;;;;;76.10;33.70;;;;;;;9.42;68.05;98194.85;433325;1270;97999;-43
2022/02/15 13:01:59;;;;;;;34.60;18.50;;;;;;;9.82;67.81;98196.66;433388;1269;111499;-43
2022/02/15 13:22:12;;;;;;;39.80;20.00;;;;;;;9.47;67.06;98211.80;433008;1270;98438;-42
2022/02/15 13:42:34;;;;;;;21.80;12.40;;;;;;;9.39;66.39;98212.61;433268;1269;108847;-41
2022/02/15 13:52:40;;;;;;;26.80;13.10;;;;;;;9.15;66.33;98205.84;433084;1270;97506;-41
2022/02/15 14:02:49;;;;;;;28.90;12.10;;;;;;;8.85;66.46;98212.07;432414;1270;111162;-41
2022/02/15 14:12:56;;;;;;;24.30;12.70;;;;;;;8.65;66.78;98214.23;433021;1269;108847;-40
2022/02/15 14:23:04;;;;;;;32.40;14.80;;;;;;;8.52;66.88;98217.17;432778;1270;108872;-43
2022/02/15 14:33:13;;;;;;;28.90;13.50;;;;;;;8.44;66.85;98223.25;432928;1270;97510;-41
2022/02/15 14:43:21;;;;;;;47.50;22.00;;;;;;;8.40;67.15;98228.58;432767;1270;111386;-43
2022/02/15 15:03:42;;;;;;;40.00;18.10;;;;;;;8.34;67.31;98237.86;433198;1269;109313;-41
2022/02/15 15:13:50;;;;;;;43.20;17.60;;;;;;;8.21;67.47;98237.29;433224;1269;97484;-41
2022/02/15 15:23:56;;;;;;;38.40;18.90;;;;;;;8.06;67.46;98242.20;433313;1269;111197;-42
2022/02/15 15:34:04;;;;;;;53.00;21.50;;;;;;;7.85;67.50;98250.80;432832;1270;107825;-42
2022/02/15 15:44:11;;;;;;;48.50;23.90;;;;;;;7.65;67.64;98266.59;432975;1270;108994;-43
2022/02/15 16:04:25;;;;;;;77.20;38.00;;;;;;;7.20;68.05;98284.20;433490;1267;108901;-42
2022/02/15 16:14:33;;;;;;;84.20;43.10;;;;;;;6.65;68.06;98277.35;433458;1267;96681;-41
2022/02/15 16:24:41;;;;;;;102.10;54.00;;;;;;;6.15;68.48;98293.35;433590;1267;110249;-41
2022/02/15 16:34:51;;;;;;;124.90;55.90;;;;;;;5.71;68.74;98313.02;433514;1267;108828;-42
2022/02/15 16:44:58;;;;;;;134.10;66.40;;;;;;;5.23;68.97;98313.75;433636;1267;107661;-44
2022/02/15 16:55:08;;;;;;;141.70;71.20;;;;;;;4.96;69.34;98313.69;433429;1267;97920;-40
2022/02/15 17:05:15;;;;;;;122.50;67.50;;;;;;;4.80;69.59;98317.95;433613;1266;108910;-42
2022/02/15 17:15:23;;;;;;;185.90;87.40;;;;;;;4.77;70.25;98329.27;433554;1267;98470;-41
2022/02/15 17:25:31;;;;;;;184.30;86.80;;;;;;;4.53;70.41;98340.82;433563;1267;111105;-42
2022/02/15 17:55:52;;;;;;;149.90;78.90;;;;;;;4.25;71.09;98348.91;433431;1267;97874;-40
2022/02/15 18:06:20;;;;;;;209.50;97.90;;;;;;;4.06;71.32;98353.30;433481;1267;108856;-42
2022/02/15 18:16:27;;;;;;;233.30;106.20;;;;;;;3.88;71.79;98357.88;433446;1267;96671;-44
2022/02/15 18:26:52;;;;;;;268.30;116.50;;;;;;;3.60;71.76;98366.11;433575;1267;111128;-42
2022/02/15 18:47:35;;;;;;;128.70;69.50;;;;;;;3.39;72.63;98363.13;433532;1267;109048;-42
2022/02/15 18:57:42;;;;;;;134.70;67.60;;;;;;;3.50;72.95;98347.27;433487;1267;97905;-41
2022/02/15 19:07:49;;;;;;;143.90;73.50;;;;;;;3.59;73.18;98332.02;429468;1267;5447928;-41
2022/02/15 19:17:58;;;;;;;182.90;83.50;;;;;;;3.59;73.30;98349.98;433472;1267;97951;-40
2022/02/15 19:28:05;;;;;;;209.80;94.70;;;;;;;3.39;73.29;98349.05;433569;1267;111115;-42
2022/02/15 19:38:13;;;;;;;264.10;120.10;;;;;;;2.96;73.19;98357.34;433552;1267;108832;-42
2022/02/15 19:48:20;;;;;;;182.40;98.00;;;;;;;2.65;73.30;98364.25;433450;1267;108871;-43
2022/02/15 19:58:28;;;;;;;186.00;94.50;;;;;;;2.60;73.79;98366.60;433635;1267;97912;-41
2022/02/15 20:08:35;;;;;;;289.10;127.60;;;;;;;2.63;73.85;98366.95;433784;1267;107003;-43
2022/02/15 20:18:42;;;;;;;307.50;137.80;;;;;;;2.42;74.07;98378.00;433547;1267;97901;-41
2022/02/15 20:28:50;;;;;;;263.40;112.20;;;;;;;2.20;74.13;98371.66;433516;1267;97756;-42
2022/02/15 20:38:57;;;;;;;262.70;104.70;;;;;;;2.19;74.63;98364.90;433514;1267;111105;-41
2022/02/15 20:49:04;;;;;;;131.10;68.20;;;;;;;2.38;74.96;98367.20;433597;1267;108808;-41
2022/02/15 20:59:12;;;;;;;122.20;63.70;;;;;;;2.67;75.15;98359.92;433655;1267;97929;-41
2022/02/15 21:09:18;;;;;;;113.70;58.80;;;;;;;2.89;75.27;98362.78;433619;1267;111640;-42
2022/02/15 21:19:23;;;;;;;123.50;65.80;;;;;;;2.99;75.40;98368.09;432995;1269;108806;-42
2022/02/15 21:29:30;;;;;;;229.40;101.10;;;;;;;2.93;75.61;98358.92;433113;1270;97905;-43
2022/02/15 21:39:38;;;;;;;193.70;89.40;;;;;;;2.87;75.90;98360.58;433157;1270;108694;-40
2022/02/15 21:49:45;;;;;;;104.00;56.00;;;;;;;2.97;76.06;98354.54;433141;1270;108867;-42
2022/02/15 21:59:53;;;;;;;98.30;51.50;;;;;;;3.15;76.05;98337.94;432742;1270;97900;-41
2022/02/15 22:10:00;;;;;;;115.00;62.10;;;;;;;3.24;76.12;98327.09;432759;1270;109025;-41
2022/02/15 22:20:10;;;;;;;179.90;81.30;;;;;;;3.21;76.12;98323.27;432867;1270;97899;-41
2022/02/15 22:30:17;;;;;;;164.90;73.20;;;;;;;3.17;76.33;98320.27;433183;1270;109641;-45
2022/02/15 22:40:25;;;;;;;171.10;76.80;;;;;;;3.19;76.44;98323.14;432797;1270;108819;-43
2022/02/15 22:50:32;;;;;;;103.40;56.60;;;;;;;3.15;76.39;98326.84;432827;1270;97938;-43
2022/02/15 23:21:14;;;;;;;244.50;101.70;;;;;;;3.16;76.67;98319.14;432856;1271;97906;-41
2022/02/15 23:31:21;;;;;;;252.50;107.00;;;;;;;3.02;76.73;98308.29;433017;1271;111194;-41
2022/02/15 23:41:29;;;;;;;223.80;104.70;;;;;;;2.99;77.12;98317.11;432681;1271;107661;-44
2022/02/15 23:51:36;;;;;;;238.00;105.50;;;;;;;2.97;77.01;98330.07;432540;1269;108359;-41
